METAR Reports

Area Airport Weather Conditions

KBDL - Windsor Locks, Connecticut, USA
Distance from station: NE 45mi, 72km
Updated: 8:51PM EDT, July 20, 2019
Partly cloudy
Partly cloudy
 Wind from WSW
Wind: WSW 7 mph , 11 km/h
Temperature: 90°F , 32°C
Heat Index: 99°F , 37°C
Dew Point: 73°F , 23°C
Humidity: 59%
Barometer: 29.76 inHg , 1007.8 hPa
Clouds: Partly cloudy
Visibility: 10 miles , 16 km
Cloud details: Few Clouds 8000 ft
Few Clouds 18000 ft
Partly cloudy 20000 ft
Partly cloudy 25000 ft
2019/07/21 00:51 KBDL 210051Z 25006KT 10SM FEW080 FEW180 SCT200 SCT250 32/23 A2976 RMK AO2 LTG DSNT E SLP077 T03170228
KDXR - Danbury, Connecticut, USA
Distance from station: SSW 15mi, 24km
Updated: 8:53PM EDT, July 20, 2019
Clear
Clear
 Wind from WSW
Wind: WSW 5 mph , 7 km/h
Temperature: 84°F , 29°C
Heat Index: 90°F , 32°C
Dew Point: 73°F , 23°C
Humidity: 70%
Barometer: 29.83 inHg , 1010.2 hPa
Clouds: Clear
Visibility: 10 miles , 16 km
2019/07/21 00:53 KDXR 210053Z 25004KT 10SM CLR 29/23 A2983 RMK AO2 SLP096 T02940233
 
KOXC - Oxford/Waterbury, Connecticut, USA
Distance from station: ESE 16mi, 26km
Updated: 8:51PM EDT, July 20, 2019
Clear
Clear
 Wind from WSW
Wind: WSW 3 mph , 6 km/h
Temperature: 86°F , 30°C
Heat Index: 95°F , 35°C
Dew Point: 75°F , 24°C
Humidity: 70%
Barometer: 29.84 inHg , 1010.5 hPa
Clouds: Clear
Visibility: 10 miles , 16 km
2019/07/21 00:51 KOXC 210051Z 25003KT 10SM CLR 30/24 A2984 RMK AO2 SLP108 T03000244
KPOU - Poughkeepsie, New York, USA
Distance from station: W 25mi, 40km
Updated: 8:53PM EDT, July 20, 2019
Clear
Clear
 Wind from W
Wind: W 7 mph , 11 km/h
Temperature: 86°F , 30°C
Heat Index: 88°F , 31°C
Dew Point: 66°F , 19°C
Humidity: 52%
Barometer: 29.79 inHg , 1008.8 hPa
Clouds: Clear
Visibility: 10 miles , 16 km
2019/07/21 00:53 KPOU 210053Z 26006KT 10SM CLR 30/19 A2979 RMK AO2 SLP082 T03000194
 
KMMK - Meriden, Connecticut, USA
Distance from station: E 30mi, 48km
Updated: 8:53PM EDT, July 20, 2019
Clear
Clear
 Wind from SSW
Wind: SSW 5 mph , 7 km/h
Temperature: 88°F , 31°C
Heat Index: 96°F , 36°C
Dew Point: 73°F , 23°C
Humidity: 62%
Barometer: 29.79 inHg , 1008.8 hPa
Clouds: Clear
Visibility: 10 miles , 16 km
2019/07/21 00:53 KMMK 210053Z AUTO 20004KT 10SM CLR 31/23 A2979 RMK AO2 SLP085 T03110228
KBDR - Bridgeport, Connecticut, USA
Distance from station: SSE 32mi, 51km
Updated: 8:52PM EDT, July 20, 2019
Clear
Clear
 Wind from W
Wind: W 5 mph , 7 km/h
Temperature: 84°F , 29°C
Heat Index: 90°F , 32°C
Dew Point: 73°F , 23°C
Humidity: 70%
Barometer: 29.79 inHg , 1008.8 hPa
Clouds: Clear
Visibility: 10 miles , 16 km
2019/07/21 00:52 KBDR 210052Z 27004KT 10SM CLR 29/23 A2979 RMK AO2 SLP088 T02890228 $
 
KHVN - New Haven/Tweed, Connecticut, USA
Distance from station: SE 35mi, 57km
Updated: 8:53PM EDT, July 20, 2019
Partly cloudy
Partly cloudy
 Wind from SW
Wind: SW 7 mph , 11 km/h
Temperature: 90°F , 32°C
Heat Index: 101°F , 38°C
Dew Point: 75°F , 24°C
Humidity: 63%
Barometer: 29.80 inHg , 1009.1 hPa
Clouds: Partly cloudy
Visibility: 10 miles , 16 km
Cloud details: Partly cloudy 8000 ft
2019/07/21 00:53 KHVN 210053Z 23006KT 10SM SCT080 32/24 A2980 RMK AO2 SLP089 T03170239
KSWF - Newburgh/Stewart, New York, USA
Distance from station: W 35mi, 57km
Updated: 8:45PM EDT, July 20, 2019
Partly cloudy
Partly cloudy
 Wind from WSW
Wind: WSW 7 mph , 11 km/h
Temperature: 77°F , 25°C
Dew Point: 73°F , 23°C
Humidity: 89%
Barometer: 29.83 inHg , 1010.2 hPa
Clouds: Partly cloudy
Visibility: 10 miles , 16 km
Cloud details: Partly cloudy 6000 ft
2019/07/21 00:45 KSWF 210045Z 24006KT 10SM SCT060 25/23 A2983
 
KHPN - White Plains, New York, USA
Distance from station: SSW 38mi, 62km
Updated: 7:56PM EDT, July 20, 2019
Few Clouds
Few Clouds
 Wind from WSW
Wind: WSW 5 mph , 7 km/h
Temperature: 90°F , 32°C
Heat Index: 97°F , 36°C
Dew Point: 72°F , 22°C
Humidity: 55%
Barometer: 29.82 inHg , 1009.8 hPa
Clouds: Few Clouds
Visibility: 10 miles , 16 km
Cloud details: Few Clouds 7500 ft
2019/07/20 23:56 KHPN 202356Z 25004KT 10SM FEW075 32/22 A2982 RMK AO2 SLP090 T03170222 10344 20317 53011
KHFD - Hartford/Brainar, Connecticut, USA
Distance from station: ENE 41mi, 65km
Updated: 8:53PM EDT, July 20, 2019
Clear
Clear
 Wind from WSW
Wind: WSW 5 mph , 7 km/h
Temperature: 91°F , 33°C
Heat Index: 100°F , 38°C
Dew Point: 73°F , 23°C
Humidity: 56%
Barometer: 29.76 inHg , 1007.8 hPa
Clouds: Clear
Visibility: 10 miles , 16 km
2019/07/21 00:53 KHFD 210053Z 24004KT 10SM CLR 33/23 A2976 RMK AO2 SLP078 T03280233 $